Latest Weather Observations for Point Fawcett

IDD60801

Issued at 1:31 pm CST Sunday 7 February 2016 (issued every 30 minutes, with the page automatically refreshed every 10 minutes)

About weather observations | Map of weather stations | Latest weather observations for NT | Other Formats
Station Details ID: 200731 Name: POINT FAWCETT Lat: -11.76 Lon: 130.03 Height: 6.5 m
Data from the previous 72 hours. | See also: Recent months at Point Fawcett
Date/Time
CST
Temp
°C
App
Temp
°C
Dew
Point
Rel
Hum
%
Delta-T
°C
Wind Press
QNH
hPa
Press
MSL
hPa
Rain
since 9 am
mm
Dir
 
Spd
km/h
Gust
km/h
Spd
kts
Gust
kts
07/01:30pm 31.6 36.4 26.2 73 3.9 WNW 13 17 7 9 1007.4 - 0.0
07/01:00pm 32.6 37.6 26.6 70 4.3 WNW 13 15 7 8 1007.7 - 0.0
07/12:30pm 31.9 37.5 26.9 75 3.6 NNW 11 13 6 7 1008.0 - 0.0
07/12:00pm 32.0 38.1 27.0 75 3.6 N 9 13 5 7 1008.3 1008.2 0.0
07/11:30am 31.9 36.8 26.4 72 3.9 N 13 15 7 8 1008.5 - 0.0
07/11:00am 32.2 38.1 26.7 72 4.0 N 9 13 5 7 1008.8 - 0.0
07/10:30am 31.5 37.1 26.3 74 3.7 NW 9 11 5 6 1008.8 - 0.0
07/10:00am 31.0 36.6 26.3 76 3.4 NNW 9 13 5 7 1008.7 - 0.0
07/09:30am 31.2 36.9 26.5 76 3.4 WNW 9 13 5 7 1008.6 - 0.0
07/09:00am 30.7 36.1 26.0 76 3.4 NW 9 13 5 7 1008.4 1008.3 0.2
07/08:30am 30.3 35.6 26.5 80 2.7 WNW 11 11 6 6 1008.1 - 0.2
07/08:00am 29.4 34.2 26.2 83 2.3 NW 13 15 7 8 1007.7 - 0.2
07/07:30am 28.4 33.9 26.2 88 1.6 WNW 9 13 5 7 1007.4 - 0.2
07/07:00am 26.8 33.5 25.4 92 1.0 CALM 0 4 0 2 1007.2 - 0.2
07/06:30am 27.3 32.7 25.1 88 1.5 W 6 9 3 5 1007.0 - 0.2
07/06:00am 28.2 33.1 25.8 87 1.7 W 11 15 6 8 1006.7 1006.6 0.2
07/05:30am 28.2 32.9 25.6 86 1.8 W 11 13 6 7 1006.6 - 0.2
07/05:00am 28.2 32.9 25.6 86 1.8 W 11 15 6 8 1006.3 - 0.2
07/04:30am 28.2 32.4 25.4 85 2.0 W 13 15 7 8 1006.0 - 0.2
07/04:00am 28.4 32.6 25.4 84 2.1 W 13 17 7 9 1005.8 - 0.2
07/03:30am 28.2 33.1 25.8 87 1.7 WNW 11 15 6 8 1005.9 - 0.2
07/03:00am 28.3 33.1 25.7 86 1.8 WNW 11 13 6 7 1005.9 1005.8 0.2
07/02:30am 28.2 32.9 25.6 86 1.8 WNW 11 13 6 7 1006.2 - 0.2
07/02:00am 28.2 32.9 25.6 86 1.8 WNW 11 15 6 8 1006.7 - 0.2
07/01:30am 28.1 32.8 25.5 86 1.8 WNW 11 13 6 7 1007.2 - 0.2
07/01:00am 28.1 32.9 25.7 87 1.7 WNW 11 13 6 7 1007.5 - 0.2
07/12:30am 28.2 33.5 25.8 87 1.7 WNW 9 11 5 6 1007.7 - 0.2
07/12:00am 28.0 33.3 25.8 88 1.6 W 9 11 5 6 1008.1 1008.0 0.2
 
Date/Time
CST
Temp
°C
App
Temp
°C
Dew
Point
Rel
Hum
%
Delta-T
°C
Wind Press
QNH
hPa
Press
MSL
hPa
Rain
since 9 am
mm
Dir
 
Spd
km/h
Gust
km/h
Spd
kts
Gust
kts
06/11:30pm 28.2 33.5 25.8 87 1.7 W 9 13 5 7 1008.2 - 0.2
06/11:00pm 28.0 33.5 26.2 90 1.3 W 9 13 5 7 1008.3 - 0.2
06/10:30pm 27.9 33.5 26.3 91 1.1 W 9 13 5 7 1008.3 - 0.2
06/10:00pm 27.2 33.2 26.0 93 0.8 W 6 7 3 4 1008.2 - 0.2
06/09:30pm 27.7 33.3 26.3 92 1.0 W 9 11 5 6 1008.0 - 0.2
06/09:00pm 27.2 33.7 25.6 91 1.1 SSW 2 6 1 3 1007.7 1007.6 0.2
06/08:30pm 27.4 33.7 25.4 89 1.4 NW 2 6 1 3 1007.2 - 0.2
06/08:00pm 28.0 34.7 25.4 86 1.8 CALM 0 0 0 0 1006.6 - 0.2
06/07:30pm 29.0 34.6 25.8 83 2.3 W 7 9 4 5 1006.3 - 0.2
06/07:00pm 29.4 34.9 25.6 80 2.7 WSW 7 9 4 5 1005.8 - 0.2
06/06:30pm 29.7 35.1 25.4 78 3.0 WSW 7 11 4 6 1005.6 - 0.2
06/06:00pm 30.2 35.3 25.5 76 3.3 WSW 9 13 5 7 1005.5 1005.4 0.2
06/05:30pm 31.6 36.4 26.2 73 3.9 SW 13 17 7 9 1005.2 - 0.2
06/05:00pm 31.7 36.6 25.8 71 4.2 WSW 11 15 6 8 1005.0 - 0.2
06/04:30pm 31.0 36.3 26.5 77 3.2 SW 11 15 6 8 1004.9 - 0.2
06/04:00pm 31.6 36.5 25.9 72 4.1 SW 11 19 6 10 1005.0 - 0.2
06/03:30pm 31.5 36.0 25.8 72 4.1 S 13 20 7 11 1005.3 - 0.2
06/03:00pm 31.4 36.7 26.4 75 3.6 SSW 11 17 6 9 1005.5 1005.4 0.2
06/02:30pm 30.4 35.1 25.5 75 3.5 SSW 11 19 6 10 1005.8 - 0.2
06/02:00pm 31.1 35.8 26.1 75 3.6 SSW 13 20 7 11 1006.1 - 0.2
06/01:30pm 31.0 36.0 26.5 77 3.2 SW 13 19 7 10 1006.4 - 0.2
06/01:00pm 31.1 35.2 26.4 76 3.4 SW 17 24 9 13 1006.9 - 0.2
06/12:30pm 31.2 34.9 25.8 73 3.8 SSW 17 24 9 13 1007.2 - 0.2
06/12:00pm 29.8 33.8 24.4 73 3.8 S 11 22 6 12 1007.6 - 0.2
06/11:30am 28.8 31.9 23.5 73 3.6 WSW 13 19 7 10 1008.3 - 0.2
06/11:00am 28.0 31.1 25.4 86 1.8 SW 19 28 10 15 1009.0 - 0.2
06/10:30am 28.3 31.9 26.1 88 1.6 SW 19 28 10 15 1009.3 - 0.0
06/10:00am 28.3 33.1 26.3 89 1.4 SSW 13 19 7 10 1009.3 - 0.0
06/09:30am 28.2 33.5 26.4 90 1.3 SSW 11 17 6 9 1009.0 - 0.0
06/09:00am 27.8 32.9 26.2 91 1.1 S 11 19 6 10 1008.7 - 8.4
06/08:30am 27.5 32.3 26.3 93 0.9 S 13 19 7 10 1008.2 - 8.4
06/08:00am 27.4 32.0 26.5 95 0.6 SW 15 22 8 12 1007.7 - 8.4
06/07:30am 26.4 31.1 25.5 95 0.6 SSW 11 19 6 10 1007.5 - 8.4
06/07:00am 25.6 29.2 23.8 90 1.2 SSW 11 17 6 9 1007.5 - 8.4
06/06:30am 26.0 29.5 24.8 93 0.8 SSW 15 22 8 12 1007.2 - 8.4
06/06:00am 25.7 28.1 24.3 92 1.0 SSW 19 32 10 17 1007.1 1007.0 8.4
06/05:30am 27.1 28.4 24.7 87 1.7 WSW 26 37 14 20 1007.0 - 8.4
06/05:00am 27.2 30.8 25.6 91 1.1 WNW 17 20 9 11 1006.5 - 8.4
06/04:30am 26.8 29.5 24.8 89 1.4 NW 19 22 10 12 1006.2 - 8.4
06/04:00am 26.6 29.1 24.8 90 1.3 NW 20 26 11 14 1006.3 - 8.4
06/03:30am 26.7 28.8 25.3 92 1.0 WNW 24 30 13 16 1006.6 - 8.4
06/03:00am 26.8 28.7 25.0 90 1.3 WNW 24 32 13 17 1006.7 1006.6 8.4
06/02:30am 26.9 27.7 25.1 90 1.3 W 30 39 16 21 1007.2 - 8.4
06/02:00am 27.3 29.5 26.1 93 0.8 W 26 41 14 22 1007.5 - 8.4
06/01:30am 27.1 29.4 25.1 89 1.4 WNW 22 28 12 15 1007.9 - 8.4
06/01:00am 26.6 28.8 24.8 90 1.3 WNW 22 30 12 16 1007.9 - 8.4
06/12:30am 26.5 30.1 25.6 95 0.6 NNW 17 24 9 13 1008.1 - 8.4
06/12:00am 26.2 30.6 25.7 97 0.4 W 13 20 7 11 1008.3 - 8.4
 
Date/Time
CST
Temp
°C
App
Temp
°C
Dew
Point
Rel
Hum
%
Delta-T
°C
Wind Press
QNH
hPa
Press
MSL
hPa
Rain
since 9 am
mm
Dir
 
Spd
km/h
Gust
km/h
Spd
kts
Gust
kts
05/11:30pm 27.2 30.6 26.1 94 0.8 SW 20 28 11 15 1008.4 - 2.8
05/11:00pm 27.1 32.7 26.9 99 0.1 W 11 19 6 10 1008.5 - 2.8
05/10:30pm 25.8 31.3 25.3 97 0.3 E 6 7 3 4 1008.2 - 2.8
05/10:00pm 25.9 30.6 24.9 94 0.7 E 9 11 5 6 1008.3 - 2.8
05/09:30pm 26.3 29.5 24.3 89 1.4 N 15 32 8 17 1008.2 - 2.6
05/09:16pm 27.6 27.2 24.6 84 2.1 WNW 35 43 19 23 1008.1 - 0.0
05/09:00pm 29.4 34.6 26.8 86 1.9 WNW 13 17 7 9 1008.0 1007.9 0.0
05/08:30pm 29.3 34.1 26.3 84 2.1 WNW 13 17 7 9 1007.8 - 0.0
05/08:00pm 29.3 34.0 26.1 83 2.3 W 13 15 7 8 1007.5 - 0.0
05/07:30pm 29.4 33.6 26.0 82 2.4 W 15 19 8 10 1007.1 - 0.0
05/07:00pm 29.7 34.5 26.3 82 2.4 W 13 17 7 9 1006.8 - 0.0
05/06:30pm 29.9 34.3 26.3 81 2.6 W 15 19 8 10 1006.5 - 0.0
05/06:00pm 30.1 34.1 25.6 77 3.2 W 15 17 8 9 1006.1 1006.0 0.0
05/05:30pm 30.3 35.3 26.5 80 2.7 W 13 17 7 9 1005.9 - 0.0
05/05:00pm 30.3 34.7 26.2 79 2.9 W 15 17 8 9 1005.6 - 0.0
05/04:30pm 30.4 34.8 26.3 79 2.9 WNW 15 19 8 10 1005.6 - 0.0
05/04:00pm 30.5 34.6 25.8 76 3.3 W 15 20 8 11 1005.6 - 0.0
05/03:30pm 30.5 34.5 26.2 78 3.1 W 17 20 9 11 1005.6 - 0.0
05/03:00pm 30.5 34.4 26.0 77 3.2 W 17 20 9 11 1005.8 1005.7 0.0
05/02:30pm 30.6 35.3 26.7 80 2.8 W 15 19 8 10 1006.4 - 0.0
05/02:00pm 30.8 34.5 25.8 74 3.6 W 17 20 9 11 1006.6 - 0.0
05/01:30pm 32.3 36.7 26.8 73 4.0 W 17 20 9 11 1006.6 - 0.0
05/01:00pm 32.2 37.1 27.0 74 3.8 W 15 20 8 11 1007.1 - 0.0
05/12:30pm 31.8 37.1 27.0 76 3.5 W 13 19 7 10 1007.7 - 0.0
05/12:00pm 32.0 38.4 27.5 77 3.3 W 9 13 5 7 1008.0 1007.9 0.0
05/11:30am 31.0 37.1 26.5 77 3.2 NW 7 9 4 5 1008.2 - 0.0
05/11:00am 30.9 37.3 26.6 78 3.1 NW 6 9 3 5 1008.4 - 0.0
05/10:30am 30.7 36.7 26.4 78 3.1 W 7 9 4 5 1008.8 - 0.0
05/10:00am 30.6 37.0 27.0 81 2.6 W 7 11 4 6 1009.0 - 0.0
05/09:30am 29.7 35.8 26.5 83 2.3 W 7 11 4 6 1009.0 - 0.0
05/09:00am 28.9 36.9 27.3 91 1.2 CALM 0 0 0 0 1008.9 - 1.4
05/08:30am 28.7 36.1 27.5 93 0.9 ESE 4 7 2 4 1008.6 - 1.4
05/08:00am 28.2 36.7 28.0 99 0.1 CALM 0 7 0 4 1008.2 - 1.4
05/07:30am 26.6 32.8 26.6 100 0.0 E 7 9 4 5 1008.0 - 1.4
05/07:00am 25.6 31.2 25.4 99 0.1 SE 6 7 3 4 1007.8 - 1.4
05/06:30am 25.6 31.2 25.4 99 0.1 SE 6 6 3 3 1007.6 - 1.4
05/06:00am 25.9 31.7 25.7 99 0.1 SSE 6 6 3 3 1007.1 - 1.4
05/05:30am 26.0 31.8 25.8 99 0.1 SSE 6 7 3 4 1007.0 - 1.4
05/05:00am 26.2 32.2 26.0 99 0.1 SE 6 7 3 4 1006.8 - 1.4
05/04:30am 26.0 31.6 25.8 99 0.1 SE 7 7 4 4 1006.8 - 1.4
05/04:00am 25.7 31.3 25.5 99 0.1 SSE 6 7 3 4 1006.8 - 1.4
05/03:30am 25.9 31.5 25.7 99 0.1 SE 7 7 4 4 1006.9 - 1.4
05/03:00am 26.1 32.0 25.9 99 0.1 SSE 6 7 3 4 1007.1 1007.0 1.4
05/02:30am 26.2 32.2 26.0 99 0.1 S 6 7 3 4 1007.3 - 1.4
05/02:00am 26.2 32.2 26.0 99 0.1 S 6 9 3 5 1007.4 - 1.4
05/01:30am 26.2 31.9 25.9 98 0.2 SSW 7 9 4 5 1007.8 - 1.4
05/01:00am 26.3 32.1 26.0 98 0.2 S 7 9 4 5 1008.1 - 1.4
05/12:30am 26.5 32.5 26.0 97 0.4 S 6 7 3 4 1008.6 - 1.4
05/12:00am 26.6 32.6 26.1 97 0.4 S 6 7 3 4 1009.0 1008.9 1.4
 
Date/Time
CST
Temp
°C
App
Temp
°C
Dew
Point
Rel
Hum
%
Delta-T
°C
Wind Press
QNH
hPa
Press
MSL
hPa
Rain
since 9 am
mm
Dir
 
Spd
km/h
Gust
km/h
Spd
kts
Gust
kts
04/11:30pm 26.5 32.5 26.0 97 0.4 S 6 7 3 4 1009.3 - 1.4
04/11:00pm 26.6 32.9 25.9 96 0.5 SSW 4 6 2 3 1009.5 - 1.4
04/10:30pm 26.7 32.5 25.8 95 0.6 S 6 7 3 4 1009.4 - 1.4
04/10:00pm 26.8 33.8 25.8 94 0.7 CALM 0 4 0 2 1009.1 - 1.4
04/09:30pm 27.0 32.7 25.6 92 1.0 S 6 7 3 4 1008.9 - 1.4
04/09:00pm 27.5 33.1 25.5 89 1.4 S 6 7 3 4 1008.2 1008.1 1.4
04/08:30pm 28.1 33.7 25.5 86 1.8 SSW 6 9 3 5 1007.9 - 1.4
04/08:00pm 29.0 34.3 25.8 83 2.3 WSW 9 13 5 7 1007.5 - 1.4
04/07:30pm 29.1 33.7 25.3 80 2.7 WSW 11 15 6 8 1007.2 - 1.4
04/07:00pm 29.5 33.9 25.7 80 2.7 SW 13 19 7 10 1006.9 - 1.4
04/06:30pm 29.8 34.6 26.2 81 2.6 SW 13 17 7 9 1006.4 - 1.4
04/06:00pm 30.1 35.3 26.3 80 2.7 WSW 11 19 6 10 1006.2 1006.1 1.4
04/05:30pm 30.4 35.4 26.6 80 2.7 WSW 13 19 7 10 1005.9 - 1.4
04/05:00pm 30.6 36.4 27.2 82 2.5 W 11 15 6 8 1005.9 - 1.4
04/04:30pm 30.6 36.1 27.8 85 2.0 W 15 20 8 11 1005.6 - 1.4
04/04:00pm 31.3 36.0 27.2 79 3.0 W 17 22 9 12 1005.6 - 1.4
04/03:30pm 31.3 36.9 27.4 80 2.8 W 13 20 7 11 1006.1 - 1.4
04/03:00pm 31.3 36.9 27.4 80 2.8 W 13 19 7 10 1006.1 1006.0 1.4
04/02:30pm 31.9 37.6 27.6 78 3.1 W 13 19 7 10 1006.6 - 1.4
04/02:00pm 32.3 38.1 27.7 76 3.4 W 13 19 7 10 1006.9 - 1.4

Other Formats:

Comma delimited format used in spreadsheet applications
http://www.bom.gov.au/fwo/IDD60801/IDD60801.94122.axf

JavaScript Object Notation format (JSON) in row-major order
http://www.bom.gov.au/fwo/IDD60801/IDD60801.94122.json